createdAt,value
2023-05-17T00:01:06.613Z,6.16
2023-05-17T00:03:33.323Z,6.14
2023-05-17T00:05:59.999Z,6.00
2023-05-17T00:08:26.698Z,5.96
2023-05-17T00:10:53.384Z,5.92
2023-05-17T00:13:20.164Z,5.91
2023-05-17T00:15:46.883Z,5.89
2023-05-17T00:18:13.675Z,5.73
2023-05-17T00:20:40.398Z,5.56
2023-05-17T00:23:07.108Z,5.65
2023-05-17T00:25:33.782Z,5.62
2023-05-17T00:28:00.953Z,5.36
2023-05-17T00:30:27.651Z,5.29
2023-05-17T00:32:54.351Z,5.32
2023-05-17T00:35:21.151Z,5.36
2023-05-17T00:37:48.162Z,5.26
2023-05-17T00:40:15.812Z,5.19
2023-05-17T00:42:42.641Z,5.21
2023-05-17T00:45:09.686Z,5.27
2023-05-17T00:47:36.414Z,5.17
2023-05-17T00:50:03.999Z,5.20
2023-05-17T00:52:30.764Z,5.29
2023-05-17T00:54:58.981Z,5.14
2023-05-17T00:57:25.784Z,5.04
2023-05-17T00:59:52.890Z,5.12
2023-05-17T01:02:19.590Z,5.11
2023-05-17T01:04:46.459Z,5.19
2023-05-17T01:07:13.153Z,5.07
2023-05-17T01:09:40.054Z,5.10
2023-05-17T01:12:19.330Z,5.10
2023-05-17T01:14:49.567Z,5.11
2023-05-17T01:17:27.676Z,5.06
2023-05-17T01:20:07.526Z,5.09
2023-05-17T01:23:23.988Z,5.15
2023-05-17T01:26:28.325Z,5.14
2023-05-17T01:28:55.083Z,5.17
2023-05-17T01:31:22.668Z,5.13
2023-05-17T01:33:49.531Z,5.23
2023-05-17T01:36:16.336Z,5.08
2023-05-17T01:38:43.001Z,5.06
2023-05-17T01:41:21.473Z,5.09
2023-05-17T01:43:51.390Z,5.01
2023-05-17T01:46:27.554Z,4.95
2023-05-17T01:49:34.777Z,4.96
2023-05-17T01:52:14.116Z,4.90
2023-05-17T01:55:04.881Z,4.96
2023-05-17T01:57:34.048Z,4.97
2023-05-17T02:00:06.451Z,5.05
2023-05-17T02:02:33.165Z,5.02
2023-05-17T02:04:59.941Z,5.07
2023-05-17T02:07:26.703Z,5.12
2023-05-17T02:09:53.360Z,5.18
2023-05-17T02:12:20.070Z,5.17
2023-05-17T02:14:46.815Z,5.34
2023-05-17T02:17:13.533Z,5.28
2023-05-17T02:19:40.271Z,5.33
2023-05-17T02:22:06.934Z,5.48
2023-05-17T02:24:33.830Z,5.56
2023-05-17T02:27:01.001Z,5.60
2023-05-17T02:29:27.663Z,5.61
2023-05-17T02:31:54.329Z,5.59
2023-05-17T02:34:21.098Z,5.64
2023-05-17T02:36:48.474Z,5.61
2023-05-17T02:39:15.201Z,5.57
2023-05-17T02:41:41.894Z,5.63
2023-05-17T02:44:09.589Z,5.66
2023-05-17T02:46:38.336Z,5.73
2023-05-17T02:49:05.243Z,5.78
2023-05-17T02:51:31.976Z,5.90
2023-05-17T02:53:58.662Z,5.93
2023-05-17T02:56:25.767Z,5.95
2023-05-17T02:58:52.416Z,6.06
2023-05-17T03:01:19.076Z,6.13
2023-05-17T03:03:45.982Z,6.08
2023-05-17T03:06:12.813Z,6.13
2023-05-17T03:08:40.370Z,6.11
2023-05-17T03:11:07.010Z,6.03
2023-05-17T03:13:33.681Z,5.97
2023-05-17T03:16:00.795Z,5.99
2023-05-17T03:18:27.580Z,6.00
2023-05-17T03:20:57.396Z,5.96
2023-05-17T03:23:24.130Z,5.86
2023-05-17T03:25:50.953Z,5.92
2023-05-17T03:28:17.601Z,5.85
2023-05-17T03:30:44.284Z,5.84
2023-05-17T03:33:11.186Z,5.82
2023-05-17T03:35:37.872Z,5.74
2023-05-17T03:38:04.486Z,5.68
2023-05-17T03:40:31.153Z,5.71
2023-05-17T03:42:57.804Z,5.62
2023-05-17T03:45:24.538Z,5.61
2023-05-17T03:47:51.241Z,5.67
2023-05-17T03:50:17.973Z,5.62
2023-05-17T03:52:46.128Z,5.57
2023-05-17T03:55:12.790Z,5.68
2023-05-17T03:57:42.705Z,5.65
2023-05-17T04:00:11.768Z,5.71
2023-05-17T04:02:38.760Z,5.64
2023-05-17T04:05:05.673Z,5.65
2023-05-17T04:07:32.653Z,5.75
2023-05-17T04:10:02.083Z,5.78
2023-05-17T04:12:28.856Z,5.78
2023-05-17T04:14:55.691Z,5.84
2023-05-17T04:17:22.378Z,5.87
2023-05-17T04:19:49.205Z,5.98
2023-05-17T04:22:16.013Z,6.00
2023-05-17T04:24:42.639Z,6.16
2023-05-17T04:27:09.886Z,6.29
2023-05-17T04:29:36.506Z,6.16
2023-05-17T04:32:03.151Z,6.27
2023-05-17T04:34:31.955Z,6.34
2023-05-17T04:36:58.734Z,6.39
2023-05-17T04:39:25.578Z,6.53
2023-05-17T04:41:52.253Z,6.64
2023-05-17T04:44:19.116Z,6.62
2023-05-17T04:46:45.924Z,6.76
2023-05-17T04:49:12.676Z,6.80
2023-05-17T05:15:24.924Z,8.23
2023-05-17T05:22:01.788Z,8.88
2023-05-17T05:25:35.316Z,8.96
2023-05-17T05:28:01.993Z,9.09
2023-05-17T05:30:28.640Z,9.40
2023-05-17T05:32:55.418Z,10.09
2023-05-17T05:35:29.423Z,10.40
2023-05-17T05:38:22.127Z,10.37
2023-05-17T05:40:52.852Z,10.54
2023-05-17T05:43:20.356Z,10.51
2023-05-17T05:49:39.755Z,10.04
2023-05-17T05:52:50.441Z,10.02
2023-05-17T05:55:32.397Z,10.58
2023-05-17T05:58:28.727Z,11.32
2023-05-17T06:05:14.772Z,10.93
2023-05-17T06:07:43.237Z,11.24
2023-05-17T06:10:12.380Z,11.34
2023-05-17T06:12:41.020Z,11.94
2023-05-17T06:15:08.376Z,11.98
2023-05-17T06:17:35.097Z,11.80
2023-05-17T06:20:02.184Z,11.59
2023-05-17T06:22:29.026Z,11.70
2023-05-17T06:24:55.677Z,12.11
2023-05-17T06:27:22.383Z,12.38
2023-05-17T06:29:49.035Z,12.06
2023-05-17T06:32:15.828Z,11.98
2023-05-17T06:34:42.467Z,12.04
2023-05-17T06:37:09.206Z,12.27
2023-05-17T06:39:35.875Z,12.64
2023-05-17T06:42:02.529Z,12.59
2023-05-17T06:44:29.166Z,12.29
2023-05-17T06:46:56.598Z,12.62
2023-05-17T06:49:23.292Z,12.90
2023-05-17T06:51:49.978Z,13.05
2023-05-17T06:54:16.637Z,12.73
2023-05-17T06:56:43.268Z,12.63
2023-05-17T06:59:09.892Z,12.54
2023-05-17T07:01:36.808Z,12.30
2023-05-17T07:04:03.548Z,12.57
2023-05-17T07:06:31.299Z,12.94
2023-05-17T07:08:57.940Z,12.77
2023-05-17T07:11:24.633Z,12.61
2023-05-17T07:13:53.586Z,12.64
2023-05-17T07:16:21.278Z,13.02
2023-05-17T07:18:48.002Z,13.13
2023-05-17T07:21:14.701Z,13.40
2023-05-17T07:23:41.462Z,13.55
2023-05-17T07:26:08.106Z,13.53
2023-05-17T07:28:34.749Z,13.87
2023-05-17T07:31:01.694Z,13.89
2023-05-17T07:33:28.491Z,14.02
2023-05-17T07:35:55.190Z,13.90
2023-05-17T07:38:22.104Z,13.83
2023-05-17T07:40:48.731Z,14.26
2023-05-17T07:43:15.506Z,13.70
2023-05-17T07:45:43.978Z,13.66
2023-05-17T07:48:10.783Z,14.10
2023-05-17T07:50:37.510Z,14.23
2023-05-17T07:53:04.175Z,14.33
2023-05-17T07:55:31.060Z,13.94
2023-05-17T07:57:57.853Z,14.03
2023-05-17T08:00:24.692Z,13.61
2023-05-17T08:02:51.648Z,13.81
2023-05-17T08:05:18.396Z,14.09
2023-05-17T08:07:45.096Z,14.13
2023-05-17T08:10:11.819Z,14.48
2023-05-17T08:12:38.577Z,14.42
2023-05-17T08:15:05.631Z,14.52
2023-05-17T08:17:32.532Z,14.22
2023-05-17T08:19:59.382Z,13.78
2023-05-17T08:22:26.489Z,14.16
2023-05-17T08:24:53.179Z,14.39
2023-05-17T08:27:19.809Z,14.43
2023-05-17T08:29:48.311Z,14.21
2023-05-17T08:32:14.961Z,14.47
2023-05-17T08:34:41.681Z,14.41
2023-05-17T08:37:08.320Z,13.74
2023-05-17T08:39:35.000Z,14.31
2023-05-17T08:42:02.510Z,14.47
2023-05-17T08:44:29.241Z,14.66
2023-05-17T08:46:56.693Z,14.77
2023-05-17T08:49:25.774Z,14.14
2023-05-17T08:51:54.471Z,14.36
2023-05-17T08:54:21.166Z,14.63
2023-05-17T08:56:52.351Z,14.64
2023-05-17T08:59:19.874Z,15.07
2023-05-17T09:01:49.646Z,15.33
2023-05-17T09:04:16.986Z,15.08
2023-05-17T09:06:44.760Z,14.71
2023-05-17T09:09:11.692Z,14.58
2023-05-17T09:11:38.878Z,15.17
2023-05-17T09:14:07.369Z,15.67
2023-05-17T09:16:36.227Z,15.37
2023-05-17T09:19:05.373Z,15.94
2023-05-17T09:21:32.861Z,16.12
2023-05-17T09:26:41.965Z,15.30
2023-05-17T09:29:12.647Z,15.34
2023-05-17T09:31:40.282Z,15.33
2023-05-17T09:34:08.278Z,15.17
2023-05-17T09:36:36.729Z,15.49
2023-05-17T09:39:06.280Z,15.55
2023-05-17T09:41:33.908Z,15.39
2023-05-17T09:44:01.557Z,15.44
2023-05-17T09:46:29.104Z,15.57
2023-05-17T09:48:57.088Z,15.16
2023-05-17T09:51:34.289Z,15.23
2023-05-17T09:54:01.428Z,15.46
2023-05-17T09:56:31.407Z,15.71
2023-05-17T09:59:01.396Z,15.67
2023-05-17T10:01:30.091Z,16.11
2023-05-17T10:04:00.424Z,16.08
2023-05-17T10:09:01.035Z,15.97
2023-05-17T10:11:33.914Z,15.93
2023-05-17T10:14:23.688Z,16.24
2023-05-17T10:16:51.888Z,15.80
2023-05-17T10:19:21.570Z,15.71
2023-05-17T10:21:51.238Z,15.45
2023-05-17T10:24:20.107Z,15.60
2023-05-17T10:26:49.872Z,15.74
2023-05-17T10:29:16.996Z,16.16
2023-05-17T10:31:45.329Z,16.54
2023-05-17T10:34:12.820Z,16.32
2023-05-17T10:36:41.315Z,16.27
2023-05-17T10:39:08.381Z,15.62
2023-05-17T10:41:35.450Z,15.34
2023-05-17T10:44:04.344Z,15.61
2023-05-17T10:46:31.626Z,15.66
2023-05-17T10:49:00.334Z,16.05
2023-05-17T10:51:32.394Z,16.05
2023-05-17T10:54:08.232Z,16.24
2023-05-17T10:56:35.207Z,16.10
2023-05-17T10:59:15.970Z,16.07
2023-05-17T11:02:06.252Z,16.36
2023-05-17T11:04:51.027Z,16.85
2023-05-17T11:07:19.074Z,17.09
2023-05-17T11:09:47.007Z,17.13
2023-05-17T11:12:15.133Z,16.55
2023-05-17T11:14:45.070Z,16.74
2023-05-17T11:17:26.976Z,17.17
2023-05-17T11:20:10.435Z,17.01
2023-05-17T11:22:49.580Z,16.37
2023-05-17T11:25:16.995Z,16.51
2023-05-17T11:27:46.075Z,16.80
2023-05-17T11:30:23.093Z,16.54
2023-05-17T11:32:51.675Z,16.46
2023-05-17T11:35:22.713Z,16.17
2023-05-17T11:37:52.191Z,16.11
2023-05-17T11:40:27.865Z,16.06
2023-05-17T11:43:11.041Z,15.92
2023-05-17T11:45:50.648Z,15.44
2023-05-17T11:48:21.761Z,15.64
2023-05-17T11:50:49.608Z,15.87
2023-05-17T11:53:16.488Z,16.32
2023-05-17T11:55:48.726Z,16.53
2023-05-17T11:58:18.052Z,16.18
2023-05-17T12:00:45.217Z,16.29
2023-05-17T12:03:19.749Z,16.24
2023-05-17T12:05:48.292Z,16.50
2023-05-17T12:08:19.745Z,16.59
2023-05-17T12:10:50.480Z,16.44
2023-05-17T12:13:17.632Z,16.28
2023-05-17T12:15:45.846Z,15.91
2023-05-17T12:18:13.237Z,16.12
2023-05-17T12:20:53.165Z,15.97
2023-05-17T12:23:29.386Z,16.07
2023-05-17T12:26:14.594Z,16.18
2023-05-17T12:28:58.747Z,15.83
2023-05-17T12:31:36.977Z,15.90
2023-05-17T12:34:06.086Z,16.14
2023-05-17T12:36:37.339Z,16.20
2023-05-17T12:39:06.281Z,16.32
2023-05-17T12:41:33.138Z,16.26
2023-05-17T12:44:06.748Z,16.61
2023-05-17T12:46:41.685Z,16.54
2023-05-17T12:49:09.615Z,16.50
2023-05-17T12:51:43.957Z,16.35
2023-05-17T12:54:11.985Z,16.32
2023-05-17T12:56:41.754Z,16.32
2023-05-17T12:59:16.673Z,16.39
2023-05-17T13:01:55.599Z,16.24
2023-05-17T13:04:32.781Z,16.08
2023-05-17T13:07:01.478Z,15.76
2023-05-17T13:09:33.066Z,15.67
2023-05-17T13:12:02.334Z,16.09
2023-05-17T13:14:46.291Z,16.47
2023-05-17T13:17:25.496Z,16.42
2023-05-17T13:19:52.884Z,16.53
2023-05-17T13:22:19.637Z,16.35
2023-05-17T13:24:46.366Z,16.09
2023-05-17T13:27:13.189Z,15.96
2023-05-17T13:29:42.590Z,16.03
2023-05-17T13:32:11.615Z,15.85
2023-05-17T13:34:38.719Z,15.59
2023-05-17T13:37:08.685Z,15.58
2023-05-17T13:39:37.197Z,15.82
2023-05-17T13:42:04.575Z,15.81
2023-05-17T13:44:31.253Z,15.98
2023-05-17T13:46:57.991Z,16.13
2023-05-17T13:49:24.735Z,16.15
2023-05-17T13:51:51.877Z,16.34
2023-05-17T13:54:20.629Z,16.53
2023-05-17T13:56:48.257Z,16.57
2023-05-17T13:59:15.328Z,16.89
2023-05-17T14:01:43.432Z,16.82
2023-05-17T14:04:10.176Z,16.84
2023-05-17T14:06:36.918Z,16.85
2023-05-17T14:09:04.600Z,16.49
2023-05-17T14:11:31.257Z,16.33
2023-05-17T14:14:01.327Z,16.04
2023-05-17T14:16:28.155Z,15.99
2023-05-17T14:18:55.002Z,16.13
2023-05-17T14:21:21.808Z,16.07
2023-05-17T14:23:48.457Z,16.15
2023-05-17T14:26:15.392Z,16.07
2023-05-17T14:28:42.089Z,16.47
2023-05-17T14:31:09.531Z,16.26
2023-05-17T14:33:36.630Z,15.74
2023-05-17T14:36:06.190Z,16.23
2023-05-17T14:38:33.116Z,16.50
2023-05-17T14:41:01.241Z,16.33
2023-05-17T14:43:28.810Z,16.44
2023-05-17T14:45:55.492Z,16.43
2023-05-17T14:48:22.579Z,16.26
2023-05-17T14:50:49.595Z,15.99
2023-05-17T14:53:16.584Z,15.69
2023-05-17T14:55:43.380Z,15.87
2023-05-17T14:58:13.075Z,15.89
2023-05-17T15:00:41.931Z,15.63
2023-05-17T15:03:09.256Z,15.47
2023-05-17T15:05:37.070Z,15.42
2023-05-17T15:08:04.448Z,15.40
2023-05-17T15:10:31.761Z,15.32
2023-05-17T15:12:58.437Z,15.50
2023-05-17T15:15:25.117Z,15.70
2023-05-17T15:17:52.855Z,15.68
2023-05-17T15:20:20.336Z,15.76
2023-05-17T15:22:48.182Z,16.00
2023-05-17T15:25:14.917Z,16.17
2023-05-17T15:27:41.687Z,15.82
2023-05-17T15:30:09.823Z,16.04
2023-05-17T15:32:38.224Z,16.27
2023-05-17T15:35:05.697Z,16.13
2023-05-17T15:37:32.386Z,16.28
2023-05-17T15:40:07.625Z,16.35
2023-05-17T15:42:34.325Z,16.55
2023-05-17T15:45:00.983Z,16.43
2023-05-17T15:47:38.687Z,16.54
2023-05-17T15:50:10.410Z,16.35
2023-05-17T15:52:37.160Z,16.13
2023-05-17T15:55:04.029Z,16.31
2023-05-17T15:57:30.955Z,16.30
2023-05-17T15:59:57.592Z,16.07
2023-05-17T16:02:24.718Z,16.21
2023-05-17T16:04:51.478Z,16.09
2023-05-17T16:07:18.123Z,16.12
2023-05-17T16:09:44.850Z,16.02
2023-05-17T16:12:11.758Z,15.77
2023-05-17T16:14:40.677Z,15.64
2023-05-17T16:17:07.414Z,15.28
2023-05-17T16:19:34.491Z,15.42
2023-05-17T16:22:01.503Z,15.58
2023-05-17T16:24:28.206Z,15.48
2023-05-17T16:26:55.120Z,15.51
2023-05-17T16:29:21.859Z,15.50
2023-05-17T16:31:48.773Z,15.17
2023-05-17T16:34:15.554Z,15.05
2023-05-17T16:36:42.431Z,14.95
2023-05-17T16:39:09.097Z,15.00
2023-05-17T16:41:35.970Z,14.61
2023-05-17T16:44:02.645Z,14.62
2023-05-17T16:46:29.340Z,14.56
2023-05-17T16:48:56.107Z,14.40
2023-05-17T16:51:22.768Z,14.28
2023-05-17T16:53:49.936Z,14.34
2023-05-17T16:56:16.819Z,14.31
2023-05-17T16:58:43.517Z,14.27
2023-05-17T17:01:10.176Z,14.01
2023-05-17T17:03:36.942Z,13.91
2023-05-17T17:06:03.727Z,13.79
2023-05-17T17:08:30.495Z,13.70
2023-05-17T17:10:57.207Z,13.72
2023-05-17T17:13:24.867Z,13.66
2023-05-17T17:15:52.596Z,13.64
2023-05-17T17:18:19.744Z,13.47
2023-05-17T17:20:46.450Z,13.43
2023-05-17T17:23:13.370Z,13.34
2023-05-17T17:25:40.260Z,13.30
2023-05-17T17:28:07.053Z,13.35
2023-05-17T17:30:34.002Z,13.29
2023-05-17T17:33:01.152Z,13.22
2023-05-17T17:35:27.999Z,13.04
2023-05-17T17:37:54.634Z,13.01
2023-05-17T17:40:21.427Z,12.97
2023-05-17T17:42:48.190Z,12.85
2023-05-17T17:45:14.919Z,12.77
2023-05-17T17:47:42.544Z,12.76
2023-05-17T17:50:09.403Z,12.80
2023-05-17T17:52:37.432Z,12.61
2023-05-17T17:55:05.153Z,12.64
2023-05-17T17:57:33.924Z,12.53
2023-05-17T18:00:00.833Z,12.52
2023-05-17T18:02:27.691Z,12.29
2023-05-17T18:04:54.491Z,12.15
2023-05-17T18:07:21.226Z,12.02
2023-05-17T18:09:47.894Z,12.01
2023-05-17T18:12:14.554Z,12.06
2023-05-17T18:14:41.445Z,11.88
2023-05-17T18:17:08.275Z,11.71
2023-05-17T18:19:34.992Z,11.65
2023-05-17T18:22:02.187Z,11.63
2023-05-17T18:24:28.836Z,11.60
2023-05-17T18:26:55.600Z,11.48
2023-05-17T18:29:22.233Z,11.50
2023-05-17T18:31:49.046Z,11.32
2023-05-17T18:34:15.876Z,11.19
2023-05-17T18:36:42.679Z,11.16
2023-05-17T18:39:09.488Z,11.17
2023-05-17T18:41:36.221Z,10.88
2023-05-17T18:44:02.996Z,10.74
2023-05-17T18:46:29.960Z,10.74
2023-05-17T18:48:56.813Z,10.67
2023-05-17T18:51:23.577Z,10.52
2023-05-17T18:53:50.403Z,10.46
2023-05-17T18:56:22.717Z,10.33
2023-05-17T18:58:52.303Z,10.26
2023-05-17T19:01:19.195Z,10.08
2023-05-17T19:03:47.378Z,10.01
2023-05-17T19:06:14.204Z,9.98
2023-05-17T19:08:41.139Z,9.73
2023-05-17T19:11:08.322Z,9.67
2023-05-17T19:13:35.068Z,9.55
2023-05-17T19:16:03.049Z,9.55
2023-05-17T19:18:31.038Z,9.46
2023-05-17T19:20:57.761Z,9.34
2023-05-17T19:23:24.619Z,9.34
2023-05-17T19:25:53.436Z,9.22
2023-05-17T19:28:20.239Z,9.15
2023-05-17T19:30:47.198Z,9.05
2023-05-17T19:33:14.003Z,9.08
2023-05-17T19:35:41.015Z,8.99
2023-05-17T19:38:08.081Z,8.92
2023-05-17T19:40:35.899Z,8.84
2023-05-17T19:43:02.682Z,8.80
2023-05-17T19:45:29.491Z,8.73
2023-05-17T19:47:56.931Z,8.56
2023-05-17T19:50:25.888Z,8.53
2023-05-17T19:52:52.563Z,8.37
2023-05-17T19:55:22.270Z,8.40
2023-05-17T19:57:49.183Z,8.43
2023-05-17T20:00:16.112Z,8.24
2023-05-17T20:02:42.942Z,8.08
2023-05-17T20:05:09.886Z,8.03
2023-05-17T20:07:37.825Z,7.99
2023-05-17T20:10:05.730Z,7.93
2023-05-17T20:12:32.743Z,7.93
2023-05-17T20:14:59.426Z,7.83
2023-05-17T20:17:26.391Z,7.75
2023-05-17T20:19:53.051Z,7.76
2023-05-17T20:22:20.807Z,7.65
2023-05-17T20:24:47.590Z,7.63
2023-05-17T20:27:15.473Z,7.58
2023-05-17T20:29:42.476Z,7.51
2023-05-17T20:32:09.209Z,7.43
2023-05-17T20:34:36.236Z,7.27
2023-05-17T20:37:03.344Z,7.30
2023-05-17T20:39:31.013Z,7.07
2023-05-17T20:42:01.252Z,7.02
2023-05-17T20:44:28.122Z,7.03
2023-05-17T20:46:56.899Z,7.01
2023-05-17T20:49:23.650Z,6.84
2023-05-17T20:51:50.797Z,6.91
2023-05-17T20:54:17.443Z,6.77
2023-05-17T20:56:44.271Z,6.70
2023-05-17T20:59:11.795Z,6.54
2023-05-17T21:01:38.793Z,6.50
2023-05-17T21:04:05.787Z,6.39
2023-05-17T21:06:32.824Z,6.30
2023-05-17T21:09:02.780Z,6.28
2023-05-17T21:11:29.877Z,6.20
2023-05-17T21:13:59.790Z,6.18
2023-05-17T21:16:26.661Z,6.09
2023-05-17T21:18:53.442Z,6.01
2023-05-17T21:21:21.147Z,6.04
2023-05-17T21:23:48.423Z,5.98
2023-05-17T21:26:15.132Z,5.87
2023-05-17T21:28:42.620Z,5.74
2023-05-17T21:31:09.905Z,5.68
2023-05-17T21:33:36.673Z,5.64
2023-05-17T21:36:03.528Z,5.67
2023-05-17T21:38:30.173Z,5.61
2023-05-17T21:40:56.813Z,5.55
2023-05-17T21:43:23.545Z,5.43
2023-05-17T21:45:50.171Z,5.45
2023-05-17T21:48:16.807Z,5.45
2023-05-17T21:50:43.500Z,5.32
2023-05-17T21:53:10.173Z,5.25
2023-05-17T21:55:51.383Z,5.09
2023-05-17T21:58:23.533Z,5.00
2023-05-17T22:00:50.574Z,4.88
2023-05-17T22:03:17.345Z,4.92
2023-05-17T22:05:44.094Z,4.88
2023-05-17T22:08:10.743Z,4.77
2023-05-17T22:10:37.443Z,4.73
2023-05-17T22:13:06.077Z,4.62
2023-05-17T22:15:32.908Z,4.61
2023-05-17T22:17:59.729Z,4.53
2023-05-17T22:20:29.599Z,4.51
2023-05-17T22:22:56.630Z,4.44
2023-05-17T22:25:23.404Z,4.33
2023-05-17T22:27:50.252Z,4.34
2023-05-17T22:30:16.976Z,4.34
2023-05-17T22:32:43.959Z,4.39
2023-05-17T22:35:10.928Z,4.28
2023-05-17T22:37:37.709Z,4.15
2023-05-17T22:40:06.376Z,4.16
2023-05-17T22:42:33.068Z,4.08
2023-05-17T22:44:59.854Z,4.02
2023-05-17T22:47:26.850Z,4.00
2023-05-17T22:49:53.704Z,3.89
2023-05-17T22:52:20.608Z,3.89
2023-05-17T22:54:50.226Z,3.88
2023-05-17T22:57:17.088Z,3.85
2023-05-17T22:59:44.127Z,3.80
2023-05-17T23:02:12.255Z,3.75
2023-05-17T23:04:39.997Z,3.81
2023-05-17T23:07:06.691Z,3.80
2023-05-17T23:09:40.406Z,3.68
2023-05-17T23:12:08.519Z,3.68
2023-05-17T23:14:36.286Z,3.72
2023-05-17T23:17:04.128Z,3.71
2023-05-17T23:19:31.989Z,3.66
2023-05-17T23:22:02.874Z,3.68
2023-05-17T23:24:29.537Z,3.72
2023-05-17T23:26:56.283Z,3.70
2023-05-17T23:29:22.963Z,3.73
2023-05-17T23:31:50.724Z,3.76
2023-05-17T23:34:17.567Z,3.73
2023-05-17T23:36:44.278Z,3.71
2023-05-17T23:39:10.945Z,3.73
2023-05-17T23:41:37.814Z,3.61
2023-05-17T23:44:05.438Z,3.62
2023-05-17T23:46:32.518Z,3.58
2023-05-17T23:48:59.279Z,3.50
2023-05-17T23:51:26.043Z,3.52
2023-05-17T23:53:52.697Z,3.46
2023-05-17T23:56:19.748Z,3.34
2023-05-17T23:58:46.507Z,3.37
